Time;durP1;ratioP1;P1;durP2;ratioP2;P2;SDS_P1;SDS_P2;PMS_P1;PMS_P2;Temp;Humidity;BMP_temperature;BMP_pressure;BME280_temperature;BME280_humidity;BME280_pressure;Samples;Min_cycle;Max_cycle;Signal;HPM_P1;HPM_P2
2022/11/30 00:00:57;;;;;;;6.75;4.53;;;14.30;69.90;;;;;;5124601;28;20024;-68
2022/11/30 00:03:23;;;;;;;5.43;3.75;;;14.30;70.00;;;;;;5124491;28;20019;-68
2022/11/30 00:05:49;;;;;;;5.93;4.13;;;14.20;70.30;;;;;;5124450;28;20020;-68
2022/11/30 00:08:15;;;;;;;5.68;4.30;;;14.20;70.40;;;;;;5124402;28;20311;-67
2022/11/30 00:10:42;;;;;;;5.18;4.13;;;14.20;70.50;;;;;;5124306;28;20034;-67
2022/11/30 00:13:08;;;;;;;5.45;4.13;;;14.20;70.60;;;;;;5124158;28;20019;-68
2022/11/30 00:15:35;;;;;;;6.47;4.28;;;14.20;70.60;;;;;;5124299;28;20331;-67
2022/11/30 00:18:01;;;;;;;6.15;4.32;;;14.20;70.50;;;;;;5124246;28;20015;-67
2022/11/30 00:20:28;;;;;;;6.40;4.95;;;14.20;70.50;;;;;;5124192;28;20012;-68
2022/11/30 00:22:55;;;;;;;5.07;3.90;;;14.20;70.60;;;;;;5105892;28;20016;-67
2022/11/30 00:25:22;;;;;;;4.55;3.78;;;14.20;70.60;;;;;;5124048;28;20019;-68
2022/11/30 00:27:48;;;;;;;5.47;4.43;;;14.20;70.50;;;;;;5124013;28;20019;-67
2022/11/30 00:30:14;;;;;;;5.38;3.78;;;14.20;70.40;;;;;;5123967;28;20027;-67
2022/11/30 00:32:40;;;;;;;6.20;4.30;;;14.20;70.40;;;;;;5123880;28;20035;-67
2022/11/30 00:35:06;;;;;;;5.53;4.53;;;14.30;70.30;;;;;;5123884;28;20030;-67
2022/11/30 00:37:34;;;;;;;6.10;4.35;;;14.20;70.20;;;;;;5123841;28;20012;-68
2022/11/30 00:39:59;;;;;;;6.28;4.97;;;14.20;70.20;;;;;;5123830;28;20028;-68
2022/11/30 00:42:25;;;;;;;6.68;4.72;;;14.30;70.20;;;;;;5123547;28;20239;-68
2022/11/30 00:44:51;;;;;;;5.13;3.72;;;14.30;70.10;;;;;;5123726;28;20051;-68
2022/11/30 00:47:16;;;;;;;6.20;4.70;;;14.30;70.10;;;;;;5123651;28;20364;-69
2022/11/30 00:49:42;;;;;;;5.35;4.20;;;14.30;70.10;;;;;;5123609;28;20019;-68
2022/11/30 00:52:08;;;;;;;5.68;3.92;;;14.30;70.10;;;;;;5123436;28;20027;-67
2022/11/30 00:54:34;;;;;;;5.00;4.20;;;14.30;70.00;;;;;;5123484;28;20016;-68
2022/11/30 00:56:59;;;;;;;5.15;3.97;;;14.30;70.00;;;;;;5123486;28;20031;-68
2022/11/30 00:59:25;;;;;;;6.32;4.38;;;14.20;69.80;;;;;;5123421;28;20015;-68
2022/11/30 01:01:53;;;;;;;5.35;3.92;;;14.30;69.90;;;;;;5123385;28;20034;-68
2022/11/30 01:04:19;;;;;;;5.18;3.90;;;14.30;69.90;;;;;;5123289;28;20019;-69
2022/11/30 01:06:45;;;;;;;5.20;3.85;;;14.30;69.90;;;;;;5123256;28;20042;-67
2022/11/30 01:09:10;;;;;;;5.82;4.28;;;14.20;69.90;;;;;;5122724;28;20019;-67
2022/11/30 01:11:36;;;;;;;5.13;4.05;;;14.20;70.10;;;;;;5122694;28;20030;-68
2022/11/30 01:14:02;;;;;;;5.90;4.55;;;14.20;70.20;;;;;;5123119;28;20023;-67
2022/11/30 01:16:31;;;;;;;4.32;3.92;;;14.20;70.30;;;;;;5123093;28;20016;-68
2022/11/30 01:18:57;;;;;;;6.35;4.53;;;14.20;70.20;;;;;;5123127;28;20019;-67
2022/11/30 01:21:26;;;;;;;6.10;4.40;;;14.20;70.30;;;;;;5123071;28;20023;-68
2022/11/30 01:23:52;;;;;;;5.35;4.45;;;14.20;70.30;;;;;;5123035;28;20057;-68
2022/11/30 01:26:18;;;;;;;6.18;4.15;;;14.20;70.40;;;;;;5122985;28;20047;-67
2022/11/30 01:28:48;;;;;;;5.32;4.20;;;14.20;70.30;;;;;;5122911;28;20019;-68
2022/11/30 01:31:14;;;;;;;6.47;4.75;;;14.20;70.40;;;;;;5122854;28;20315;-67
2022/11/30 01:33:41;;;;;;;4.38;3.72;;;14.20;70.40;;;;;;5122781;28;20069;-67
2022/11/30 01:36:15;;;;;;;6.25;4.07;;;14.20;70.50;;;;;;5122363;28;20019;-67
2022/11/30 01:38:47;;;;;;;8.18;4.97;;;14.20;70.50;;;;;;5122753;28;20011;-68
2022/11/30 01:41:16;;;;;;;8.35;5.38;;;14.20;70.30;;;;;;5122704;28;20059;-67
2022/11/30 01:43:44;;;;;;;6.20;5.20;;;14.20;70.30;;;;;;5122718;28;20053;-67
2022/11/30 01:46:36;;;;;;;6.05;4.30;;;14.20;70.20;;;;;;5122709;28;20030;-67
2022/11/30 01:49:07;;;;;;;6.05;4.40;;;14.20;70.20;;;;;;5122649;28;20020;-68
2022/11/30 01:51:36;;;;;;;5.88;4.50;;;14.20;70.30;;;;;;5122498;28;20019;-69
2022/11/30 01:54:04;;;;;;;6.47;4.93;;;14.20;70.20;;;;;;5122630;28;20008;-67
2022/11/30 01:56:30;;;;;;;4.65;3.65;;;14.20;70.10;;;;;;5122567;28;20296;-66
2022/11/30 01:58:56;;;;;;;5.68;4.38;;;14.20;70.10;;;;;;5122545;28;20020;-67
2022/11/30 02:01:23;;;;;;;6.55;4.22;;;14.20;70.10;;;;;;5122511;28;20027;-68
2022/11/30 02:03:58;;;;;;;5.97;4.07;;;14.20;70.10;;;;;;5122520;28;20086;-68
2022/11/30 02:06:24;;;;;;;5.53;4.30;;;14.20;70.00;;;;;;5104378;28;20027;-68
2022/11/30 02:08:51;;;;;;;7.57;4.80;;;14.30;70.10;;;;;;5122575;28;20023;-68
2022/11/30 02:11:17;;;;;;;13.10;4.22;;;14.30;70.00;;;;;;5122491;28;20229;-68
2022/11/30 02:13:49;;;;;;;33.47;6.55;;;14.30;70.00;;;;;;5122342;28;20015;-67
2022/11/30 02:16:27;;;;;;;7.95;4.60;;;14.30;69.90;;;;;;5122441;28;20026;-68
2022/11/30 02:18:56;;;;;;;4.55;3.50;;;14.30;69.90;;;;;;5122434;28;20016;-68
2022/11/30 02:21:33;;;;;;;6.00;4.53;;;14.20;70.00;;;;;;5123779;28;20030;-67
2022/11/30 02:24:20;;;;;;;5.88;4.60;;;14.20;70.10;;;;;;5126425;28;20018;-68
2022/11/30 02:27:19;;;;;;;6.22;4.88;;;14.20;70.20;;;;;;5126388;28;20028;-68
2022/11/30 02:29:52;;;;;;;5.93;4.45;;;14.20;70.40;;;;;;5126432;28;20015;-68
2022/11/30 02:32:32;;;;;;;6.80;4.85;;;14.10;70.50;;;;;;5126213;28;20094;-68
2022/11/30 02:35:01;;;;;;;6.93;4.68;;;14.10;70.60;;;;;;5126161;28;20078;-68
2022/11/30 02:37:28;;;;;;;6.50;4.40;;;14.10;70.60;;;;;;5126233;28;20319;-67
2022/11/30 02:39:54;;;;;;;5.97;4.15;;;14.10;70.80;;;;;;5126154;28;20015;-68
2022/11/30 02:42:20;;;;;;;6.57;4.50;;;14.10;70.70;;;;;;5125950;28;20084;-67
2022/11/30 02:44:52;;;;;;;6.90;4.53;;;14.10;70.60;;;;;;5126045;28;20020;-68
2022/11/30 02:47:36;;;;;;;5.43;4.53;;;14.20;70.70;;;;;;5125972;28;20341;-68
2022/11/30 02:50:20;;;;;;;6.68;4.65;;;14.20;70.50;;;;;;5126030;28;20554;-67
2022/11/30 02:52:46;;;;;;;6.40;4.70;;;14.20;70.40;;;;;;5125896;28;20019;-68
2022/11/30 02:55:16;;;;;;;6.22;4.35;;;14.20;70.50;;;;;;5125960;28;20015;-67
2022/11/30 02:57:42;;;;;;;5.75;4.38;;;14.20;70.50;;;;;;5125804;28;20046;-67
2022/11/30 03:00:09;;;;;;;5.82;4.50;;;14.20;70.40;;;;;;5125786;28;20311;-67
2022/11/30 03:02:36;;;;;;;6.97;4.97;;;14.20;70.40;;;;;;5125691;28;20015;-69
2022/11/30 03:05:02;;;;;;;6.55;4.90;;;14.20;70.30;;;;;;5125701;28;20023;-68
2022/11/30 03:07:28;;;;;;;5.72;4.32;;;14.20;70.30;;;;;;5125655;28;20019;-68
2022/11/30 03:09:54;;;;;;;6.32;4.22;;;14.20;70.20;;;;;;5125615;28;20026;-69
2022/11/30 03:12:20;;;;;;;7.15;4.68;;;14.20;70.20;;;;;;5125368;28;20031;-69
2022/11/30 03:14:45;;;;;;;6.53;5.00;;;14.20;70.10;;;;;;5125469;28;20015;-69
2022/11/30 03:17:11;;;;;;;4.88;4.22;;;14.20;70.10;;;;;;5125460;28;20023;-69
2022/11/30 03:19:37;;;;;;;6.57;4.93;;;14.20;70.00;;;;;;5125331;28;20023;-69
2022/11/30 03:22:03;;;;;;;5.07;4.15;;;14.20;70.10;;;;;;5125355;28;20032;-68
2022/11/30 03:24:29;;;;;;;6.53;4.70;;;14.20;69.90;;;;;;5125297;28;20253;-69
2022/11/30 03:26:55;;;;;;;6.32;3.97;;;14.20;69.80;;;;;;5125246;28;20307;-68
2022/11/30 03:29:20;;;;;;;6.63;5.22;;;14.20;69.90;;;;;;5125230;28;20053;-67
2022/11/30 03:31:46;;;;;;;6.10;4.50;;;14.20;70.00;;;;;;5106791;28;20215;-68
2022/11/30 03:34:12;;;;;;;6.25;4.07;;;14.20;70.10;;;;;;5124135;28;20018;-68
2022/11/30 03:36:37;;;;;;;6.07;4.38;;;14.20;70.10;;;;;;5125100;28;20087;-69
2022/11/30 03:39:03;;;;;;;5.68;4.47;;;14.20;70.40;;;;;;5106813;28;20016;-68
2022/11/30 03:41:29;;;;;;;5.32;4.15;;;14.10;70.50;;;;;;5124792;28;20052;-68
2022/11/30 03:43:55;;;;;;;5.32;4.38;;;14.20;70.50;;;;;;5124942;28;20022;-69
2022/11/30 03:46:21;;;;;;;5.47;4.50;;;14.20;70.60;;;;;;5124833;28;20019;-68
2022/11/30 03:48:47;;;;;;;6.28;4.68;;;14.10;70.60;;;;;;5124854;28;20039;-69
2022/11/30 03:51:13;;;;;;;5.13;3.90;;;14.10;70.50;;;;;;5124748;28;20029;-69
2022/11/30 03:53:40;;;;;;;7.30;5.40;;;14.20;70.70;;;;;;5124584;28;20091;-69
2022/11/30 03:56:08;;;;;;;4.90;4.22;;;14.10;70.70;;;;;;5124630;28;20031;-69
2022/11/30 03:58:34;;;;;;;5.28;4.25;;;14.20;71.20;;;;;;5124652;28;20272;-68
2022/11/30 04:01:15;;;;;;;6.68;4.53;;;14.20;70.50;;;;;;5124498;28;20027;-68
2022/11/30 04:03:42;;;;;;;6.28;4.57;;;14.20;70.30;;;;;;5124511;28;20015;-69
2022/11/30 04:06:09;;;;;;;5.35;4.63;;;14.20;70.40;;;;;;5124441;28;20069;-67
2022/11/30 04:08:36;;;;;;;4.70;4.13;;;14.20;70.30;;;;;;5124349;28;20225;-67
2022/11/30 04:11:03;;;;;;;6.70;4.65;;;14.20;70.30;;;;;;5124342;28;20019;-68
2022/11/30 04:13:30;;;;;;;7.07;4.85;;;14.20;70.30;;;;;;5124240;28;20259;-67
2022/11/30 04:15:56;;;;;;;5.10;4.03;;;14.20;70.20;;;;;;5124132;28;20019;-68
2022/11/30 04:18:24;;;;;;;5.00;3.95;;;14.20;70.20;;;;;;5124253;28;20011;-69
2022/11/30 04:20:54;;;;;;;4.30;3.63;;;14.20;70.10;;;;;;5124173;28;20012;-68
2022/11/30 04:23:22;;;;;;;5.03;4.03;;;14.20;70.10;;;;;;5124146;28;20068;-67
2022/11/30 04:25:48;;;;;;;6.38;4.50;;;14.20;70.10;;;;;;5124153;28;20012;-67
2022/11/30 04:28:15;;;;;;;4.80;3.85;;;14.20;70.00;;;;;;5124225;28;20043;-68
2022/11/30 04:30:42;;;;;;;6.75;4.30;;;14.20;70.00;;;;;;5123975;28;20311;-68
2022/11/30 04:33:07;;;;;;;6.15;4.95;;;14.20;70.00;;;;;;5123889;28;20024;-68
2022/11/30 04:35:38;;;;;;;4.88;4.03;;;14.20;70.00;;;;;;5123879;28;20019;-68
2022/11/30 04:38:03;;;;;;;6.30;4.40;;;14.20;70.00;;;;;;5123799;28;20047;-68
2022/11/30 04:40:29;;;;;;;5.75;4.43;;;14.20;70.10;;;;;;5123844;28;20027;-68
2022/11/30 04:42:55;;;;;;;6.63;4.70;;;14.20;70.20;;;;;;5123628;28;20289;-67
2022/11/30 04:45:20;;;;;;;5.18;4.30;;;14.20;70.30;;;;;;5123528;28;20306;-67
2022/11/30 04:47:46;;;;;;;4.93;3.83;;;14.20;70.50;;;;;;5123642;28;20020;-68
2022/11/30 04:50:12;;;;;;;5.55;4.15;;;14.10;70.50;;;;;;5123590;28;20034;-67
2022/11/30 04:52:38;;;;;;;4.57;4.03;;;14.10;70.60;;;;;;5123450;28;20031;-68
2022/11/30 04:55:04;;;;;;;5.82;4.70;;;14.10;70.70;;;;;;5123599;28;20020;-68
2022/11/30 04:57:30;;;;;;;5.72;4.30;;;14.10;70.70;;;;;;5123486;28;20082;-67
2022/11/30 04:59:56;;;;;;;5.05;4.13;;;14.10;70.70;;;;;;5123402;28;20090;-68
2022/11/30 05:02:22;;;;;;;5.97;4.10;;;14.10;70.60;;;;;;5123362;28;20046;-68
2022/11/30 05:04:47;;;;;;;4.45;3.70;;;14.10;70.70;;;;;;5123352;28;20038;-69
2022/11/30 05:07:13;;;;;;;5.00;3.67;;;14.10;70.60;;;;;;5123427;28;20030;-68
2022/11/30 05:09:39;;;;;;;5.35;4.05;;;14.10;70.60;;;;;;5123302;28;20180;-69
2022/11/30 05:12:05;;;;;;;4.30;3.75;;;14.20;70.50;;;;;;5123208;28;20321;-69
2022/11/30 05:14:31;;;;;;;5.05;4.18;;;14.20;70.50;;;;;;5123202;28;20335;-68
2022/11/30 05:16:56;;;;;;;5.57;3.78;;;14.20;70.50;;;;;;5105062;28;20034;-68
2022/11/30 05:19:22;;;;;;;5.32;3.88;;;14.20;70.40;;;;;;5123086;28;20038;-67
2022/11/30 05:21:48;;;;;;;5.18;3.88;;;14.20;70.40;;;;;;5122967;28;20084;-68
2022/11/30 05:24:14;;;;;;;5.68;4.10;;;14.20;70.40;;;;;;5123056;28;20069;-68
2022/11/30 05:26:39;;;;;;;4.18;3.70;;;14.10;70.40;;;;;;5122948;28;20023;-68
2022/11/30 05:29:05;;;;;;;5.88;4.43;;;14.20;70.40;;;;;;5123002;28;20039;-68
2022/11/30 05:31:31;;;;;;;4.75;4.03;;;14.10;70.30;;;;;;5122908;28;20031;-68
2022/11/30 05:33:57;;;;;;;5.20;3.95;;;14.20;70.30;;;;;;5122896;28;20274;-69
2022/11/30 05:36:23;;;;;;;4.38;3.90;;;14.20;70.20;;;;;;5122877;28;20274;-68
2022/11/30 05:38:49;;;;;;;5.18;3.90;;;14.20;70.20;;;;;;5122777;28;20035;-69
2022/11/30 05:41:15;;;;;;;4.60;3.38;;;14.20;70.10;;;;;;5104323;28;20471;-68
2022/11/30 05:43:41;;;;;;;5.20;4.20;;;14.20;70.00;;;;;;5122783;28;20027;-68
2022/11/30 05:46:08;;;;;;;5.35;3.92;;;14.20;70.00;;;;;;5122677;28;20023;-68
2022/11/30 05:48:35;;;;;;;5.05;3.80;;;14.20;70.10;;;;;;5122689;28;20024;-68
2022/11/30 05:51:14;;;;;;;5.32;4.10;;;14.20;70.10;;;;;;5104402;28;20050;-68
2022/11/30 05:53:40;;;;;;;5.78;4.25;;;14.20;70.20;;;;;;5122605;28;20322;-68
2022/11/30 05:56:09;;;;;;;5.05;4.05;;;14.20;70.40;;;;;;5122016;28;20030;-68
2022/11/30 05:58:35;;;;;;;6.50;4.50;;;14.10;70.50;;;;;;5122654;28;20199;-68
2022/11/30 06:01:01;;;;;;;5.10;3.90;;;14.10;70.50;;;;;;5122578;28;20031;-67
2022/11/30 06:03:29;;;;;;;5.22;4.03;;;14.10;70.50;;;;;;5122465;28;20102;-67
2022/11/30 06:05:55;;;;;;;6.15;4.60;;;14.10;70.50;;;;;;5122523;28;20024;-68
2022/11/30 06:08:21;;;;;;;5.30;4.13;;;14.10;70.60;;;;;;5122477;28;20237;-67
2022/11/30 06:10:47;;;;;;;5.28;4.03;;;14.20;70.60;;;;;;5122404;28;20027;-68
2022/11/30 06:13:13;;;;;;;4.65;3.70;;;14.20;70.60;;;;;;5104054;28;20027;-67
2022/11/30 06:15:39;;;;;;;5.75;4.40;;;14.10;70.50;;;;;;5122360;28;20023;-67
2022/11/30 06:18:07;;;;;;;10.27;4.25;;;14.10;70.60;;;;;;5122382;28;20021;-67
2022/11/30 06:20:33;;;;;;;5.00;4.13;;;14.10;70.60;;;;;;5122287;28;20026;-68
2022/11/30 06:22:59;;;;;;;5.07;3.90;;;14.10;70.50;;;;;;5122294;28;20036;-68
2022/11/30 06:25:25;;;;;;;5.28;3.95;;;14.20;70.50;;;;;;5122275;28;20088;-68
2022/11/30 06:27:52;;;;;;;4.82;3.55;;;14.20;70.40;;;;;;5122341;28;20023;-68
2022/11/30 06:30:18;;;;;;;5.85;4.60;;;14.20;70.30;;;;;;5104105;28;20219;-68
2022/11/30 06:32:47;;;;;;;4.60;3.70;;;14.20;70.30;;;;;;5122172;28;20016;-68
2022/11/30 06:35:14;;;;;;;6.43;3.90;;;14.20;70.30;;;;;;5122290;28;20024;-68
2022/11/30 06:37:40;;;;;;;5.30;3.80;;;14.20;70.40;;;;;;5122253;28;20012;-68
2022/11/30 06:40:06;;;;;;;4.90;4.05;;;14.20;70.40;;;;;;5122196;28;20023;-68
2022/11/30 06:42:33;;;;;;;5.55;4.13;;;14.20;70.30;;;;;;5122000;28;20096;-68
2022/11/30 06:44:59;;;;;;;5.35;4.40;;;14.20;70.30;;;;;;5122145;28;20047;-68
2022/11/30 06:47:26;;;;;;;4.93;4.03;;;14.20;70.30;;;;;;5122164;28;20027;-68
2022/11/30 06:49:52;;;;;;;5.97;4.30;;;14.20;70.30;;;;;;5122048;28;20211;-68
2022/11/30 06:52:18;;;;;;;5.32;3.97;;;14.10;70.20;;;;;;5121996;28;20043;-67
2022/11/30 06:54:44;;;;;;;4.80;3.63;;;14.20;70.30;;;;;;5122076;28;20025;-68
2022/11/30 06:57:09;;;;;;;4.55;3.60;;;14.20;70.20;;;;;;5121971;28;20057;-69
2022/11/30 06:59:41;;;;;;;5.18;4.28;;;14.20;70.20;;;;;;5103766;28;20330;-69
2022/11/30 07:02:14;;;;;;;4.97;3.58;;;14.20;70.30;;;;;;5122001;28;20020;-68
2022/11/30 07:04:40;;;;;;;4.78;3.50;;;14.20;70.40;;;;;;5122031;28;20334;-69
2022/11/30 07:07:06;;;;;;;5.65;3.95;;;14.20;70.40;;;;;;5121948;28;20023;-68
2022/11/30 07:09:33;;;;;;;4.50;3.90;;;14.10;70.60;;;;;;5124815;28;20039;-68
2022/11/30 07:11:59;;;;;;;5.75;4.43;;;14.10;70.70;;;;;;5125455;28;20064;-68
2022/11/30 07:14:25;;;;;;;4.95;3.97;;;14.10;70.70;;;;;;5125550;28;20011;-68
2022/11/30 07:16:52;;;;;;;5.20;4.22;;;14.10;70.70;;;;;;5125488;28;20022;-68
2022/11/30 07:19:18;;;;;;;6.10;3.97;;;14.10;70.80;;;;;;5125437;28;20011;-68
2022/11/30 07:21:44;;;;;;;5.93;4.35;;;14.10;70.70;;;;;;5125411;28;20027;-67
2022/11/30 07:27:02;;;;;;;5.65;4.30;;;14.10;70.70;;;;;;5125279;28;20015;-68
2022/11/30 07:29:28;;;;;;;5.97;4.30;;;14.10;70.70;;;;;;5125212;28;20200;-68
2022/11/30 07:31:54;;;;;;;4.00;3.58;;;14.10;70.70;;;;;;5125130;28;20031;-67
2022/11/30 07:34:21;;;;;;;4.90;3.80;;;14.20;70.60;;;;;;5125104;28;20261;-66
2022/11/30 07:36:47;;;;;;;6.18;4.05;;;14.20;70.50;;;;;;5124988;28;20012;-68
2022/11/30 07:39:13;;;;;;;4.78;3.58;;;14.20;70.40;;;;;;5124975;28;20023;-67
2022/11/30 07:41:40;;;;;;;5.00;4.35;;;14.20;70.40;;;;;;5124775;28;20060;-67
2022/11/30 07:44:07;;;;;;;5.10;3.95;;;14.20;70.40;;;;;;5124938;28;20015;-67
2022/11/30 07:46:34;;;;;;;4.13;3.60;;;14.20;70.40;;;;;;5124742;28;20030;-68
2022/11/30 07:49:09;;;;;;;4.78;3.90;;;14.20;70.30;;;;;;5124848;28;20078;-67
2022/11/30 07:51:36;;;;;;;5.32;4.15;;;14.20;70.20;;;;;;5124787;28;20045;-67
2022/11/30 07:54:02;;;;;;;4.97;4.20;;;14.20;70.30;;;;;;5106437;28;20307;-68
2022/11/30 07:56:28;;;;;;;4.85;3.88;;;14.20;70.20;;;;;;5124623;28;20027;-67
2022/11/30 07:58:57;;;;;;;4.22;3.67;;;14.20;70.10;;;;;;5124587;28;20028;-67
2022/11/30 08:01:25;;;;;;;5.50;4.10;;;14.20;70.10;;;;;;5124531;28;20083;-68
2022/11/30 08:03:52;;;;;;;3.95;3.38;;;14.20;70.00;;;;;;5124609;28;20087;-68
2022/11/30 08:06:20;;;;;;;5.00;3.85;;;14.20;70.00;;;;;;5124536;28;20087;-67
2022/11/30 08:08:47;;;;;;;4.72;3.42;;;14.20;70.00;;;;;;5124526;28;20087;-68
2022/11/30 08:11:15;;;;;;;5.32;4.00;;;14.20;70.00;;;;;;5124425;28;20019;-68
2022/11/30 08:13:42;;;;;;;3.97;3.53;;;14.20;70.60;;;;;;5124336;28;20019;-68
2022/11/30 08:16:17;;;;;;;4.60;3.97;;;14.20;69.90;;;;;;5124316;28;20020;-68
2022/11/30 08:18:43;;;;;;;5.57;4.07;;;14.20;70.00;;;;;;5123822;28;20022;-68
2022/11/30 08:21:11;;;;;;;5.05;3.63;;;14.20;70.30;;;;;;5124179;28;20046;-68
2022/11/30 08:23:42;;;;;;;6.32;4.45;;;14.10;70.40;;;;;;5124091;28;20024;-68
2022/11/30 08:26:14;;;;;;;6.13;3.83;;;14.10;70.40;;;;;;5105852;28;20026;-68
2022/11/30 08:28:43;;;;;;;5.55;4.05;;;14.10;70.50;;;;;;5124058;28;20038;-68
2022/11/30 08:31:14;;;;;;;4.75;3.90;;;14.10;70.60;;;;;;5124086;28;20047;-68
2022/11/30 08:33:40;;;;;;;4.43;3.90;;;14.10;70.60;;;;;;5123911;28;20028;-66
2022/11/30 08:36:10;;;;;;;5.40;4.22;;;14.10;70.70;;;;;;5123963;28;20039;-68
2022/11/30 08:38:37;;;;;;;4.72;3.60;;;14.20;70.60;;;;;;5123964;28;20028;-67
2022/11/30 08:41:04;;;;;;;4.47;3.65;;;14.20;70.60;;;;;;5123668;28;20054;-68
2022/11/30 08:43:30;;;;;;;4.38;3.92;;;14.20;70.60;;;;;;5123716;28;20471;-67
2022/11/30 08:45:56;;;;;;;7.28;4.38;;;14.20;70.50;;;;;;5123740;28;20032;-67
2022/11/30 08:48:22;;;;;;;6.00;3.95;;;14.20;70.50;;;;;;5123759;28;20061;-68
2022/11/30 08:50:47;;;;;;;4.75;3.75;;;14.20;70.40;;;;;;5123712;28;20184;-69
2022/11/30 08:53:13;;;;;;;4.43;3.58;;;14.20;70.40;;;;;;5123529;28;20023;-67
2022/11/30 08:55:40;;;;;;;4.53;3.33;;;14.20;70.40;;;;;;5123576;28;20023;-68
2022/11/30 08:58:05;;;;;;;4.10;3.70;;;14.20;70.30;;;;;;5123495;28;20035;-67
2022/11/30 09:00:31;;;;;;;4.70;3.80;;;14.20;70.30;;;;;;5123489;28;20307;-67
2022/11/30 09:02:57;;;;;;;4.93;3.67;;;14.20;70.30;;;;;;5123445;28;20076;-68
2022/11/30 09:05:23;;;;;;;4.97;3.95;;;14.20;70.20;;;;;;5123422;28;20023;-67
2022/11/30 09:07:49;;;;;;;3.97;3.40;;;14.20;70.20;;;;;;5123365;28;20019;-67
2022/11/30 09:10:15;;;;;;;5.35;3.67;;;14.20;70.30;;;;;;5123267;28;20184;-67
2022/11/30 09:12:41;;;;;;;4.13;3.53;;;14.20;70.20;;;;;;5123154;28;20027;-67
2022/11/30 09:15:08;;;;;;;5.50;3.58;;;14.20;70.30;;;;;;5123193;28;20020;-68
2022/11/30 09:17:34;;;;;;;4.18;3.28;;;14.20;70.20;;;;;;5123147;28;20196;-68
2022/11/30 09:20:00;;;;;;;4.88;3.63;;;14.20;70.20;;;;;;5123154;28;20019;-68
2022/11/30 09:22:27;;;;;;;4.28;3.88;;;14.20;70.20;;;;;;5123075;28;20334;-67
2022/11/30 09:24:53;;;;;;;4.57;3.55;;;14.20;70.20;;;;;;5123064;28;20026;-67
2022/11/30 09:27:19;;;;;;;5.15;4.07;;;14.20;70.20;;;;;;5122990;28;20052;-68
2022/11/30 09:29:45;;;;;;;4.07;3.58;;;14.20;70.20;;;;;;5123038;28;20027;-67
2022/11/30 09:32:11;;;;;;;4.20;3.50;;;14.20;70.20;;;;;;5122100;28;20020;-66
2022/11/30 09:34:37;;;;;;;4.68;3.78;;;14.20;70.30;;;;;;5122965;28;20019;-68
2022/11/30 09:37:03;;;;;;;4.43;3.53;;;14.20;70.40;;;;;;5104634;28;20116;-68
2022/11/30 09:39:28;;;;;;;4.93;3.97;;;14.20;70.50;;;;;;5122829;28;20026;-68
2022/11/30 09:42:29;;;;;;;4.88;3.67;;;14.20;70.50;;;;;;5122608;28;20039;-68
2022/11/30 09:44:57;;;;;;;5.07;3.70;;;14.20;70.40;;;;;;5122727;28;20023;-68
2022/11/30 09:47:38;;;;;;;5.10;3.83;;;14.20;70.50;;;;;;5122829;28;20039;-68
2022/11/30 09:50:09;;;;;;;3.88;3.53;;;14.20;70.40;;;;;;5122703;28;20015;-68
2022/11/30 09:52:39;;;;;;;4.13;3.47;;;14.20;70.40;;;;;;5122651;28;20031;-68
2022/11/30 09:55:09;;;;;;;4.75;3.85;;;14.20;70.40;;;;;;5122607;28;20011;-68
2022/11/30 09:57:40;;;;;;;4.43;3.20;;;14.20;70.40;;;;;;5122886;28;20016;-67
2022/11/30 10:00:14;;;;;;;5.22;3.80;;;14.20;70.50;;;;;;5122595;28;20019;-67
2022/11/30 10:02:40;;;;;;;5.57;4.13;;;14.20;70.40;;;;;;5122564;28;20015;-68
2022/11/30 10:05:46;;;;;;;4.88;3.63;;;14.20;70.50;;;;;;5122817;28;20027;-68
2022/11/30 10:08:15;;;;;;;5.03;3.80;;;14.20;70.20;;;;;;5111579;28;20084;-66
2022/11/30 10:10:44;;;;;;;;;;;14.20;70.40;;;;;;5104743;28;20098;-68
2022/11/30 10:13:45;;;;;;;3.97;3.60;;;14.20;70.40;;;;;;5122409;28;20195;-68
2022/11/30 10:16:40;;;;;;;3.72;3.38;;;14.20;70.40;;;;;;5122555;28;20022;-67
2022/11/30 10:19:12;;;;;;;4.80;3.97;;;14.20;70.30;;;;;;5122507;28;20207;-67
2022/11/30 10:22:19;;;;;;;5.05;3.72;;;14.20;70.30;;;;;;5122344;28;20181;-67
2022/11/30 10:25:19;;;;;;;4.40;3.38;;;14.20;70.10;;;;;;5122450;28;20018;-68
2022/11/30 10:27:54;;;;;;;4.15;3.53;;;14.20;70.10;;;;;;5117595;28;20251;-67
2022/11/30 10:30:29;;;;;;;5.53;4.18;;;14.20;70.20;;;;;;5122434;28;20064;-68
2022/11/30 10:32:59;;;;;;;4.90;3.60;;;14.20;70.10;;;;;;5122265;28;20024;-68
2022/11/30 10:35:36;;;;;;;4.40;3.78;;;14.20;70.20;;;;;;5122325;28;20074;-68
2022/11/30 10:38:24;;;;;;;3.75;3.13;;;14.20;70.10;;;;;;5122277;28;20445;-68
2022/11/30 10:40:54;;;;;;;3.83;3.28;;;14.30;70.20;;;;;;5121556;28;20384;-67
2022/11/30 10:43:28;;;;;;;4.38;3.45;;;14.30;70.20;;;;;;5125074;28;20028;-67
2022/11/30 10:45:54;;;;;;;5.10;3.20;;;14.20;70.10;;;;;;5126120;28;20043;-67
2022/11/30 10:48:30;;;;;;;4.40;3.45;;;14.30;70.20;;;;;;5126121;28;20072;-69
2022/11/30 10:50:58;;;;;;;4.78;3.67;;;14.30;70.20;;;;;;5126080;28;20303;-68
2022/11/30 10:53:24;;;;;;;5.32;4.25;;;14.20;70.30;;;;;;5125901;28;20043;-68
2022/11/30 10:56:02;;;;;;;9.35;3.85;;;14.20;70.30;;;;;;5125842;28;20023;-66
2022/11/30 10:58:51;;;;;;;4.40;3.50;;;14.20;70.40;;;;;;5125905;28;20039;-66
2022/11/30 11:01:32;;;;;;;4.75;3.80;;;14.20;70.30;;;;;;5114965;28;20031;-69
2022/11/30 11:04:21;;;;;;;5.13;3.58;;;14.20;70.30;;;;;;5125792;28;20035;-67
2022/11/30 11:06:52;;;;;;;;;;;14.30;70.40;;;;;;5126158;28;20023;-68
2022/11/30 11:10:00;;;;;;;4.40;3.72;;;14.20;70.50;;;;;;5125540;28;20264;-67
2022/11/30 11:12:29;;;;;;;5.20;3.95;;;14.20;70.60;;;;;;5042818;28;20032;-67
2022/11/30 11:15:17;;;;;;;4.45;3.45;;;14.20;70.60;;;;;;5110943;28;20026;-68
2022/11/30 11:17:42;;;;;;;4.53;3.67;;;14.30;70.40;;;;;;5125502;28;20071;-67
2022/11/30 11:20:26;;;;;;;3.45;2.80;;;14.20;70.50;;;;;;5125358;28;20048;-67
2022/11/30 11:22:52;;;;;;;4.20;3.35;;;14.30;70.30;;;;;;5125341;28;20023;-67
2022/11/30 11:25:22;;;;;;;3.63;3.17;;;14.30;70.40;;;;;;5125340;28;20392;-68
2022/11/30 11:27:53;;;;;;;4.47;3.60;;;14.30;70.30;;;;;;5125239;28;20020;-67
2022/11/30 11:30:24;;;;;;;4.70;3.47;;;14.30;70.20;;;;;;5125188;28;20023;-67
2022/11/30 11:33:10;;;;;;;3.92;3.00;;;14.30;70.20;;;;;;5125069;28;20023;-67
2022/11/30 11:35:38;;;;;;;4.32;3.47;;;14.30;70.70;;;;;;5125180;28;20343;-68
2022/11/30 11:38:40;;;;;;;4.75;3.35;;;14.30;70.20;;;;;;5125167;28;20350;-67
2022/11/30 11:41:34;;;;;;;4.25;3.40;;;14.30;70.20;;;;;;5124843;28;20051;-68
2022/11/30 11:44:03;;;;;;;3.75;3.28;;;14.30;70.20;;;;;;5125085;28;20020;-68
2022/11/30 11:46:32;;;;;;;3.95;3.47;;;14.30;70.40;;;;;;5124951;28;20051;-67
2022/11/30 11:49:02;;;;;;;3.80;3.35;;;14.30;70.30;;;;;;5124955;28;20050;-68
2022/11/30 11:51:38;;;;;;;4.07;3.35;;;14.30;70.30;;;;;;5124909;28;20023;-67
2022/11/30 11:54:41;;;;;;;3.97;3.30;;;14.30;70.30;;;;;;5123922;28;20091;-67
2022/11/30 11:57:13;;;;;;;4.43;3.30;;;14.30;70.20;;;;;;5124823;28;20058;-68
2022/11/30 11:59:54;;;;;;;4.63;3.80;;;14.20;70.20;;;;;;5124654;28;20020;-67
2022/11/30 12:02:33;;;;;;;5.28;3.40;;;14.30;70.30;;;;;;5124695;28;20059;-67
2022/11/30 12:05:02;;;;;;;4.00;3.40;;;14.30;70.20;;;;;;5124623;28;20039;-67
2022/11/30 12:07:58;;;;;;;4.90;3.28;;;14.30;70.30;;;;;;5124541;28;20024;-67
2022/11/30 12:10:45;;;;;;;4.88;3.95;;;14.30;70.30;;;;;;5120336;28;20391;-68
2022/11/30 12:13:23;;;;;;;3.67;3.08;;;14.20;70.40;;;;;;5124347;28;20019;-68
2022/11/30 12:16:13;;;;;;;5.15;3.95;;;14.20;70.40;;;;;;5124396;28;20083;-67
2022/11/30 12:19:06;;;;;;;4.50;3.40;;;14.20;70.50;;;;;;5124282;28;20311;-67
2022/11/30 12:21:44;;;;;;;3.63;3.22;;;14.20;70.40;;;;;;5124324;28;20329;-67
2022/11/30 12:24:19;;;;;;;3.97;3.17;;;14.30;70.50;;;;;;5106029;28;20064;-68
2022/11/30 12:27:02;;;;;;;4.15;3.58;;;14.20;70.40;;;;;;5124199;28;20020;-67
2022/11/30 12:30:00;;;;;;;3.90;3.25;;;14.30;70.50;;;;;;5124223;28;20023;-67
2022/11/30 12:33:01;;;;;;;4.28;3.15;;;14.30;70.50;;;;;;5123976;28;20028;-68
2022/11/30 12:35:43;;;;;;;4.03;3.35;;;14.30;70.50;;;;;;5124117;28;20047;-67
2022/11/30 12:38:15;;;;;;;5.03;3.50;;;14.30;70.50;;;;;;5124002;28;20078;-68
2022/11/30 12:40:46;;;;;;;4.38;3.42;;;14.30;70.50;;;;;;5123842;28;20057;-67
2022/11/30 12:43:36;;;;;;;3.75;3.10;;;14.30;70.60;;;;;;5123861;28;20381;-68
2022/11/30 12:46:19;;;;;;;4.00;3.28;;;14.30;70.50;;;;;;5077924;28;20056;-67
2022/11/30 12:48:50;;;;;;;3.42;2.88;;;14.30;70.50;;;;;;5123757;28;20019;-67
2022/11/30 12:51:35;;;;;;;3.95;3.17;;;14.30;70.50;;;;;;5123643;28;20079;-68
2022/11/30 12:54:27;;;;;;;4.10;3.13;;;14.30;70.40;;;;;;5123568;28;20039;-67
2022/11/30 12:57:16;;;;;;;4.00;3.50;;;14.30;70.40;;;;;;5123571;28;20046;-67
2022/11/30 13:00:08;;;;;;;4.45;3.35;;;14.30;70.40;;;;;;5085264;28;20297;-67
2022/11/30 13:02:43;;;;;;;3.63;3.00;;;14.30;70.40;;;;;;5123507;28;20019;-68
2022/11/30 13:05:17;;;;;;;3.85;3.30;;;14.30;70.50;;;;;;5123372;28;20024;-67
2022/11/30 13:07:51;;;;;;;4.32;3.40;;;14.20;71.10;;;;;;5123302;28;20016;-67